sensor_id;sensor_type;location;lat;lon;timestamp;temperature;humidity
43651;DHT22;29247;50.944;5.382;2023-04-03T00:01:45;5.20;79.80
43651;DHT22;29247;50.944;5.382;2023-04-03T00:04:10;5.10;79.90
43651;DHT22;29247;50.944;5.382;2023-04-03T00:06:39;5.10;80.00
43651;DHT22;29247;50.944;5.382;2023-04-03T00:09:05;5.10;80.20
43651;DHT22;29247;50.944;5.382;2023-04-03T00:11:30;5.00;80.20
43651;DHT22;29247;50.944;5.382;2023-04-03T00:13:59;5.00;80.30
43651;DHT22;29247;50.944;5.382;2023-04-03T00:16:25;4.90;80.40
43651;DHT22;29247;50.944;5.382;2023-04-03T00:18:53;4.90;80.60
43651;DHT22;29247;50.944;5.382;2023-04-03T00:21:19;4.90;80.70
43651;DHT22;29247;50.944;5.382;2023-04-03T00:23:44;4.80;80.70
43651;DHT22;29247;50.944;5.382;2023-04-03T00:26:10;4.80;80.80
43651;DHT22;29247;50.944;5.382;2023-04-03T00:28:38;4.80;80.90
43651;DHT22;29247;50.944;5.382;2023-04-03T00:31:04;4.80;81.20
43651;DHT22;29247;50.944;5.382;2023-04-03T00:33:32;4.80;81.30
43651;DHT22;29247;50.944;5.382;2023-04-03T00:35:58;4.80;81.30
43651;DHT22;29247;50.944;5.382;2023-04-03T00:38:24;4.70;81.30
43651;DHT22;29247;50.944;5.382;2023-04-03T00:40:50;4.70;81.40
43651;DHT22;29247;50.944;5.382;2023-04-03T00:43:26;4.70;81.60
43651;DHT22;29247;50.944;5.382;2023-04-03T00:45:58;4.60;81.70
43651;DHT22;29247;50.944;5.382;2023-04-03T00:48:34;4.60;81.90
43651;DHT22;29247;50.944;5.382;2023-04-03T00:51:05;4.60;81.90
43651;DHT22;29247;50.944;5.382;2023-04-03T00:53:50;4.60;81.80
43651;DHT22;29247;50.944;5.382;2023-04-03T00:56:23;4.60;82.10
43651;DHT22;29247;50.944;5.382;2023-04-03T00:58:56;4.50;82.10
43651;DHT22;29247;50.944;5.382;2023-04-03T01:01:28;4.50;82.20
43651;DHT22;29247;50.944;5.382;2023-04-03T01:03:54;4.50;82.50
43651;DHT22;29247;50.944;5.382;2023-04-03T01:06:26;4.50;82.60
43651;DHT22;29247;50.944;5.382;2023-04-03T01:08:53;4.40;82.50
43651;DHT22;29247;50.944;5.382;2023-04-03T01:11:20;4.40;82.50
43651;DHT22;29247;50.944;5.382;2023-04-03T01:13:48;4.40;82.50
43651;DHT22;29247;50.944;5.382;2023-04-03T01:16:17;4.30;82.50
43651;DHT22;29247;50.944;5.382;2023-04-03T01:18:46;4.30;82.70
43651;DHT22;29247;50.944;5.382;2023-04-03T01:26:16;4.30;83.20
43651;DHT22;29247;50.944;5.382;2023-04-03T01:28:42;4.30;83.30
43651;DHT22;29247;50.944;5.382;2023-04-03T01:31:22;4.20;83.20
43651;DHT22;29247;50.944;5.382;2023-04-03T01:33:52;4.20;83.10
43651;DHT22;29247;50.944;5.382;2023-04-03T01:36:26;4.20;83.00
43651;DHT22;29247;50.944;5.382;2023-04-03T01:38:55;4.20;83.00
43651;DHT22;29247;50.944;5.382;2023-04-03T01:41:22;4.20;83.10
43651;DHT22;29247;50.944;5.382;2023-04-03T01:43:49;4.20;83.10
43651;DHT22;29247;50.944;5.382;2023-04-03T01:46:16;4.20;83.20
43651;DHT22;29247;50.944;5.382;2023-04-03T01:48:47;4.20;83.20
43651;DHT22;29247;50.944;5.382;2023-04-03T01:51:15;4.20;83.20
43651;DHT22;29247;50.944;5.382;2023-04-03T01:53:41;4.20;83.10
43651;DHT22;29247;50.944;5.382;2023-04-03T01:56:07;4.20;82.90
43651;DHT22;29247;50.944;5.382;2023-04-03T01:58:37;4.10;82.80
43651;DHT22;29247;50.944;5.382;2023-04-03T02:01:03;4.10;82.90
43651;DHT22;29247;50.944;5.382;2023-04-03T02:03:29;4.10;82.90
43651;DHT22;29247;50.944;5.382;2023-04-03T02:05:55;4.10;83.10
43651;DHT22;29247;50.944;5.382;2023-04-03T02:08:21;4.00;82.90
43651;DHT22;29247;50.944;5.382;2023-04-03T02:10:48;4.00;83.00
43651;DHT22;29247;50.944;5.382;2023-04-03T02:13:14;4.00;83.00
43651;DHT22;29247;50.944;5.382;2023-04-03T02:15:43;4.00;82.90
43651;DHT22;29247;50.944;5.382;2023-04-03T02:18:09;4.00;82.90
43651;DHT22;29247;50.944;5.382;2023-04-03T02:20:35;3.90;82.90
43651;DHT22;29247;50.944;5.382;2023-04-03T02:23:01;3.90;83.00
43651;DHT22;29247;50.944;5.382;2023-04-03T02:25:28;3.90;83.00
43651;DHT22;29247;50.944;5.382;2023-04-03T02:27:53;3.90;83.10
43651;DHT22;29247;50.944;5.382;2023-04-03T02:30:21;3.80;83.10
43651;DHT22;29247;50.944;5.382;2023-04-03T02:32:51;3.80;83.20
43651;DHT22;29247;50.944;5.382;2023-04-03T02:35:20;3.80;83.10
43651;DHT22;29247;50.944;5.382;2023-04-03T02:37:48;3.80;83.10
43651;DHT22;29247;50.944;5.382;2023-04-03T02:40:14;3.80;83.20
43651;DHT22;29247;50.944;5.382;2023-04-03T02:42:40;3.80;83.30
43651;DHT22;29247;50.944;5.382;2023-04-03T02:45:06;3.80;83.50
43651;DHT22;29247;50.944;5.382;2023-04-03T02:47:33;3.80;83.70
43651;DHT22;29247;50.944;5.382;2023-04-03T02:50:01;3.80;83.60
43651;DHT22;29247;50.944;5.382;2023-04-03T02:52:28;3.80;83.70
43651;DHT22;29247;50.944;5.382;2023-04-03T02:54:57;3.80;83.50
43651;DHT22;29247;50.944;5.382;2023-04-03T02:57:25;3.80;83.60
43651;DHT22;29247;50.944;5.382;2023-04-03T02:59:50;3.80;83.60
43651;DHT22;29247;50.944;5.382;2023-04-03T03:02:19;3.70;83.40
43651;DHT22;29247;50.944;5.382;2023-04-03T03:04:44;3.70;83.40
43651;DHT22;29247;50.944;5.382;2023-04-03T03:07:10;3.70;83.40
43651;DHT22;29247;50.944;5.382;2023-04-03T03:09:36;3.70;83.40
43651;DHT22;29247;50.944;5.382;2023-04-03T03:12:02;3.60;83.40
43651;DHT22;29247;50.944;5.382;2023-04-03T03:14:28;3.60;83.30
43651;DHT22;29247;50.944;5.382;2023-04-03T03:16:53;3.60;83.40
43651;DHT22;29247;50.944;5.382;2023-04-03T03:19:19;3.60;83.50
43651;DHT22;29247;50.944;5.382;2023-04-03T03:21:45;3.50;83.60
43651;DHT22;29247;50.944;5.382;2023-04-03T03:24:11;3.50;83.60
43651;DHT22;29247;50.944;5.382;2023-04-03T03:26:39;3.50;83.60
43651;DHT22;29247;50.944;5.382;2023-04-03T03:29:07;3.50;83.70
43651;DHT22;29247;50.944;5.382;2023-04-03T03:31:35;3.50;83.60
43651;DHT22;29247;50.944;5.382;2023-04-03T03:34:01;3.40;83.60
43651;DHT22;29247;50.944;5.382;2023-04-03T03:36:27;3.50;83.90
43651;DHT22;29247;50.944;5.382;2023-04-03T03:38:54;3.50;84.10
43651;DHT22;29247;50.944;5.382;2023-04-03T03:41:19;3.50;84.20
43651;DHT22;29247;50.944;5.382;2023-04-03T03:43:45;3.50;84.10
43651;DHT22;29247;50.944;5.382;2023-04-03T03:46:14;3.50;84.10
43651;DHT22;29247;50.944;5.382;2023-04-03T03:48:39;3.50;84.10
43651;DHT22;29247;50.944;5.382;2023-04-03T03:51:05;3.50;84.10
43651;DHT22;29247;50.944;5.382;2023-04-03T03:53:34;3.50;84.20
43651;DHT22;29247;50.944;5.382;2023-04-03T03:56:01;3.50;84.20
43651;DHT22;29247;50.944;5.382;2023-04-03T03:58:30;3.50;84.20
43651;DHT22;29247;50.944;5.382;2023-04-03T04:01:04;3.50;84.20
43651;DHT22;29247;50.944;5.382;2023-04-03T04:03:33;3.50;84.30
43651;DHT22;29247;50.944;5.382;2023-04-03T04:06:02;3.50;84.30
43651;DHT22;29247;50.944;5.382;2023-04-03T04:08:30;3.50;84.30
43651;DHT22;29247;50.944;5.382;2023-04-03T04:10:56;3.50;84.30
43651;DHT22;29247;50.944;5.382;2023-04-03T04:13:21;3.50;84.20
43651;DHT22;29247;50.944;5.382;2023-04-03T04:15:49;3.50;84.20
43651;DHT22;29247;50.944;5.382;2023-04-03T04:18:15;3.50;84.30
43651;DHT22;29247;50.944;5.382;2023-04-03T04:20:43;3.40;84.20
43651;DHT22;29247;50.944;5.382;2023-04-03T04:23:18;3.40;84.10
43651;DHT22;29247;50.944;5.382;2023-04-03T04:25:48;3.40;84.10
43651;DHT22;29247;50.944;5.382;2023-04-03T04:28:14;3.40;84.10
43651;DHT22;29247;50.944;5.382;2023-04-03T04:30:40;3.40;84.30
43651;DHT22;29247;50.944;5.382;2023-04-03T04:33:09;3.40;84.40
43651;DHT22;29247;50.944;5.382;2023-04-03T04:35:37;3.40;84.50
43651;DHT22;29247;50.944;5.382;2023-04-03T04:38:06;3.40;84.50
43651;DHT22;29247;50.944;5.382;2023-04-03T04:40:34;3.30;84.10
43651;DHT22;29247;50.944;5.382;2023-04-03T04:43:00;3.30;83.70
43651;DHT22;29247;50.944;5.382;2023-04-03T04:45:25;3.20;83.90
43651;DHT22;29247;50.944;5.382;2023-04-03T04:47:51;3.20;84.20
43651;DHT22;29247;50.944;5.382;2023-04-03T04:50:18;3.20;84.60
43651;DHT22;29247;50.944;5.382;2023-04-03T04:52:44;3.20;84.90
43651;DHT22;29247;50.944;5.382;2023-04-03T04:55:09;3.20;85.20
43651;DHT22;29247;50.944;5.382;2023-04-03T04:57:38;3.30;85.20
43651;DHT22;29247;50.944;5.382;2023-04-03T05:00:07;3.30;85.20
43651;DHT22;29247;50.944;5.382;2023-04-03T05:02:35;3.30;85.20
43651;DHT22;29247;50.944;5.382;2023-04-03T05:05:00;3.30;85.10
43651;DHT22;29247;50.944;5.382;2023-04-03T05:07:26;3.30;84.90
43651;DHT22;29247;50.944;5.382;2023-04-03T05:09:52;3.30;84.80
43651;DHT22;29247;50.944;5.382;2023-04-03T05:12:20;3.30;85.10
43651;DHT22;29247;50.944;5.382;2023-04-03T05:14:45;3.20;85.20
43651;DHT22;29247;50.944;5.382;2023-04-03T05:17:13;3.30;85.10
43651;DHT22;29247;50.944;5.382;2023-04-03T05:19:39;3.30;85.10
43651;DHT22;29247;50.944;5.382;2023-04-03T05:22:05;3.20;84.90
43651;DHT22;29247;50.944;5.382;2023-04-03T05:24:30;3.30;84.90
43651;DHT22;29247;50.944;5.382;2023-04-03T05:26:58;3.20;84.70
43651;DHT22;29247;50.944;5.382;2023-04-03T05:29:26;3.20;84.80
43651;DHT22;29247;50.944;5.382;2023-04-03T05:31:52;3.30;85.00
43651;DHT22;29247;50.944;5.382;2023-04-03T05:34:18;3.20;85.00
43651;DHT22;29247;50.944;5.382;2023-04-03T05:36:43;3.30;85.00
43651;DHT22;29247;50.944;5.382;2023-04-03T05:39:09;3.20;85.10
43651;DHT22;29247;50.944;5.382;2023-04-03T05:41:37;3.30;85.30
43651;DHT22;29247;50.944;5.382;2023-04-03T05:44:05;3.30;85.40
43651;DHT22;29247;50.944;5.382;2023-04-03T05:46:31;3.30;85.60
43651;DHT22;29247;50.944;5.382;2023-04-03T05:48:57;3.30;85.60
43651;DHT22;29247;50.944;5.382;2023-04-03T05:51:28;3.40;85.80
43651;DHT22;29247;50.944;5.382;2023-04-03T05:54:19;3.40;85.80
43651;DHT22;29247;50.944;5.382;2023-04-03T05:56:47;3.40;85.90
43651;DHT22;29247;50.944;5.382;2023-04-03T05:59:13;3.40;85.90
43651;DHT22;29247;50.944;5.382;2023-04-03T06:01:41;3.50;86.00
43651;DHT22;29247;50.944;5.382;2023-04-03T06:04:07;3.50;86.00
43651;DHT22;29247;50.944;5.382;2023-04-03T06:06:55;3.60;86.20
43651;DHT22;29247;50.944;5.382;2023-04-03T06:09:23;3.60;86.20
43651;DHT22;29247;50.944;5.382;2023-04-03T06:11:49;3.60;86.90
43651;DHT22;29247;50.944;5.382;2023-04-03T06:14:15;3.70;86.30
43651;DHT22;29247;50.944;5.382;2023-04-03T06:16:45;3.70;86.20
43651;DHT22;29247;50.944;5.382;2023-04-03T06:19:12;3.70;86.10
43651;DHT22;29247;50.944;5.382;2023-04-03T06:21:40;3.80;86.00
43651;DHT22;29247;50.944;5.382;2023-04-03T06:24:07;3.90;85.90
43651;DHT22;29247;50.944;5.382;2023-04-03T06:26:35;3.90;85.70
43651;DHT22;29247;50.944;5.382;2023-04-03T06:29:01;3.90;85.60
43651;DHT22;29247;50.944;5.382;2023-04-03T06:31:30;4.00;85.70
43651;DHT22;29247;50.944;5.382;2023-04-03T06:34:00;4.00;85.50
43651;DHT22;29247;50.944;5.382;2023-04-03T06:36:28;4.00;85.30
43651;DHT22;29247;50.944;5.382;2023-04-03T06:38:59;4.10;85.20
43651;DHT22;29247;50.944;5.382;2023-04-03T06:41:28;4.10;85.10
43651;DHT22;29247;50.944;5.382;2023-04-03T06:43:54;4.20;85.00
43651;DHT22;29247;50.944;5.382;2023-04-03T06:46:26;4.20;84.90
43651;DHT22;29247;50.944;5.382;2023-04-03T06:48:56;4.30;84.70
43651;DHT22;29247;50.944;5.382;2023-04-03T06:51:25;4.30;84.60
43651;DHT22;29247;50.944;5.382;2023-04-03T06:53:55;4.40;85.20
43651;DHT22;29247;50.944;5.382;2023-04-03T06:56:22;4.40;84.30
43651;DHT22;29247;50.944;5.382;2023-04-03T06:58:48;4.40;84.10
43651;DHT22;29247;50.944;5.382;2023-04-03T07:01:16;4.50;83.80
43651;DHT22;29247;50.944;5.382;2023-04-03T07:03:47;4.50;83.70
43651;DHT22;29247;50.944;5.382;2023-04-03T07:06:16;4.60;83.60
43651;DHT22;29247;50.944;5.382;2023-04-03T07:08:45;4.60;83.30
43651;DHT22;29247;50.944;5.382;2023-04-03T07:11:14;4.70;83.10
43651;DHT22;29247;50.944;5.382;2023-04-03T07:13:42;4.70;82.90
43651;DHT22;29247;50.944;5.382;2023-04-03T07:16:09;4.80;82.70
43651;DHT22;29247;50.944;5.382;2023-04-03T07:18:35;4.90;82.60
43651;DHT22;29247;50.944;5.382;2023-04-03T07:21:02;4.90;82.30
43651;DHT22;29247;50.944;5.382;2023-04-03T07:23:33;4.90;82.30
43651;DHT22;29247;50.944;5.382;2023-04-03T07:25:59;5.00;82.10
43651;DHT22;29247;50.944;5.382;2023-04-03T07:28:25;5.00;81.80
43651;DHT22;29247;50.944;5.382;2023-04-03T07:31:08;5.10;81.70
43651;DHT22;29247;50.944;5.382;2023-04-03T07:33:38;5.10;81.50
43651;DHT22;29247;50.944;5.382;2023-04-03T07:36:07;5.20;81.30
43651;DHT22;29247;50.944;5.382;2023-04-03T07:38:37;5.30;81.10
43651;DHT22;29247;50.944;5.382;2023-04-03T07:41:03;5.30;80.90
43651;DHT22;29247;50.944;5.382;2023-04-03T07:43:29;5.50;80.90
43651;DHT22;29247;50.944;5.382;2023-04-03T07:45:55;5.50;80.40
43651;DHT22;29247;50.944;5.382;2023-04-03T07:48:25;5.60;80.20
43651;DHT22;29247;50.944;5.382;2023-04-03T07:50:51;5.70;80.00
43651;DHT22;29247;50.944;5.382;2023-04-03T07:53:18;5.80;79.90
43651;DHT22;29247;50.944;5.382;2023-04-03T07:55:46;5.90;79.50
43651;DHT22;29247;50.944;5.382;2023-04-03T07:58:17;6.00;79.10
43651;DHT22;29247;50.944;5.382;2023-04-03T08:00:46;6.10;78.70
43651;DHT22;29247;50.944;5.382;2023-04-03T08:03:15;6.20;78.70
43651;DHT22;29247;50.944;5.382;2023-04-03T08:05:45;6.40;78.60
43651;DHT22;29247;50.944;5.382;2023-04-03T08:08:13;6.60;78.40
43651;DHT22;29247;50.944;5.382;2023-04-03T08:10:40;6.80;78.70
43651;DHT22;29247;50.944;5.382;2023-04-03T08:13:09;7.00;78.90
43651;DHT22;29247;50.944;5.382;2023-04-03T08:15:35;7.20;77.10
43651;DHT22;29247;50.944;5.382;2023-04-03T08:18:04;7.40;76.10
43651;DHT22;29247;50.944;5.382;2023-04-03T08:20:29;7.70;75.80
43651;DHT22;29247;50.944;5.382;2023-04-03T08:22:55;7.90;74.60
43651;DHT22;29247;50.944;5.382;2023-04-03T08:25:22;8.10;74.40
43651;DHT22;29247;50.944;5.382;2023-04-03T08:27:49;8.30;73.10
43651;DHT22;29247;50.944;5.382;2023-04-03T08:30:18;8.40;72.00
43651;DHT22;29247;50.944;5.382;2023-04-03T08:32:44;8.70;72.10
43651;DHT22;29247;50.944;5.382;2023-04-03T08:35:10;8.80;71.00
43651;DHT22;29247;50.944;5.382;2023-04-03T08:37:37;8.90;70.10
43651;DHT22;29247;50.944;5.382;2023-04-03T08:40:06;9.10;68.90
43651;DHT22;29247;50.944;5.382;2023-04-03T08:45:13;9.30;68.40
43651;DHT22;29247;50.944;5.382;2023-04-03T08:47:50;9.40;67.80
43651;DHT22;29247;50.944;5.382;2023-04-03T08:50:20;9.50;67.30
43651;DHT22;29247;50.944;5.382;2023-04-03T08:52:52;9.60;66.60
43651;DHT22;29247;50.944;5.382;2023-04-03T08:55:34;9.70;65.20
43651;DHT22;29247;50.944;5.382;2023-04-03T08:58:12;9.70;63.90
43651;DHT22;29247;50.944;5.382;2023-04-03T09:00:54;9.80;64.00
43651;DHT22;29247;50.944;5.382;2023-04-03T09:03:23;9.80;64.00
43651;DHT22;29247;50.944;5.382;2023-04-03T09:05:55;9.90;63.70
43651;DHT22;29247;50.944;5.382;2023-04-03T09:10:57;10.00;61.10
43651;DHT22;29247;50.944;5.382;2023-04-03T09:13:39;10.10;61.50
43651;DHT22;29247;50.944;5.382;2023-04-03T09:16:21;10.10;60.60
43651;DHT22;29247;50.944;5.382;2023-04-03T09:19:34;10.20;59.90
43651;DHT22;29247;50.944;5.382;2023-04-03T09:21:47;10.20;59.60
43651;DHT22;29247;50.944;5.382;2023-04-03T09:24:15;10.30;59.30
43651;DHT22;29247;50.944;5.382;2023-04-03T09:26:58;10.30;58.30
43651;DHT22;29247;50.944;5.382;2023-04-03T09:29:28;10.40;59.10
43651;DHT22;29247;50.944;5.382;2023-04-03T09:32:00;10.50;59.10
43651;DHT22;29247;50.944;5.382;2023-04-03T09:34:36;10.60;58.80
43651;DHT22;29247;50.944;5.382;2023-04-03T09:37:04;10.70;56.90
43651;DHT22;29247;50.944;5.382;2023-04-03T09:39:33;10.70;57.50
43651;DHT22;29247;50.944;5.382;2023-04-03T09:42:22;10.80;57.60
43651;DHT22;29247;50.944;5.382;2023-04-03T09:45:21;11.00;57.50
43651;DHT22;29247;50.944;5.382;2023-04-03T09:47:51;11.10;57.50
43651;DHT22;29247;50.944;5.382;2023-04-03T09:50:29;11.20;57.10
43651;DHT22;29247;50.944;5.382;2023-04-03T09:52:55;11.30;57.10
43651;DHT22;29247;50.944;5.382;2023-04-03T09:55:26;11.40;56.00
43651;DHT22;29247;50.944;5.382;2023-04-03T09:58:00;11.40;55.40
43651;DHT22;29247;50.944;5.382;2023-04-03T10:02:57;11.40;52.70
43651;DHT22;29247;50.944;5.382;2023-04-03T10:10:45;11.10;50.60
43651;DHT22;29247;50.944;5.382;2023-04-03T10:13:17;11.00;49.60
43651;DHT22;29247;50.944;5.382;2023-04-03T10:15:59;11.00;49.60
43651;DHT22;29247;50.944;5.382;2023-04-03T10:24:14;10.90;46.40
43651;DHT22;29247;50.944;5.382;2023-04-03T10:26:59;11.00;48.10
43651;DHT22;29247;50.944;5.382;2023-04-03T10:32:18;11.40;49.20
43651;DHT22;29247;50.944;5.382;2023-04-03T10:35:01;11.60;49.10
43651;DHT22;29247;50.944;5.382;2023-04-03T10:37:34;11.70;47.70
43651;DHT22;29247;50.944;5.382;2023-04-03T10:46:00;11.70;46.40
43651;DHT22;29247;50.944;5.382;2023-04-03T10:48:52;11.70;44.70
43651;DHT22;29247;50.944;5.382;2023-04-03T10:51:46;11.70;43.30
43651;DHT22;29247;50.944;5.382;2023-04-03T10:54:30;11.60;43.40
43651;DHT22;29247;50.944;5.382;2023-04-03T10:57:08;11.60;43.50
43651;DHT22;29247;50.944;5.382;2023-04-03T10:59:43;11.70;42.90
43651;DHT22;29247;50.944;5.382;2023-04-03T11:02:23;11.80;43.60
43651;DHT22;29247;50.944;5.382;2023-04-03T11:04:53;11.90;42.90
43651;DHT22;29247;50.944;5.382;2023-04-03T11:07:26;12.00;42.50
43651;DHT22;29247;50.944;5.382;2023-04-03T11:09:57;12.10;43.10
43651;DHT22;29247;50.944;5.382;2023-04-03T11:12:32;12.20;42.60
43651;DHT22;29247;50.944;5.382;2023-04-03T11:15:00;12.20;42.10
43651;DHT22;29247;50.944;5.382;2023-04-03T11:17:37;12.30;41.10
43651;DHT22;29247;50.944;5.382;2023-04-03T11:22:58;12.20;39.40
43651;DHT22;29247;50.944;5.382;2023-04-03T11:25:29;12.30;40.30
43651;DHT22;29247;50.944;5.382;2023-04-03T11:28:03;12.30;40.10
43651;DHT22;29247;50.944;5.382;2023-04-03T11:38:42;12.40;38.40
43651;DHT22;29247;50.944;5.382;2023-04-03T11:41:10;12.40;39.40
43651;DHT22;29247;50.944;5.382;2023-04-03T11:43:59;12.40;39.80
43651;DHT22;29247;50.944;5.382;2023-04-03T11:46:54;12.40;39.80
43651;DHT22;29247;50.944;5.382;2023-04-03T11:55:41;12.30;40.40
43651;DHT22;29247;50.944;5.382;2023-04-03T11:58:31;12.40;40.30
43651;DHT22;29247;50.944;5.382;2023-04-03T12:01:06;12.50;40.00
43651;DHT22;29247;50.944;5.382;2023-04-03T12:03:34;12.50;40.00
43651;DHT22;29247;50.944;5.382;2023-04-03T12:08:46;12.60;41.20
43651;DHT22;29247;50.944;5.382;2023-04-03T12:16:23;12.60;38.40
43651;DHT22;29247;50.944;5.382;2023-04-03T12:18:55;12.60;39.70
43651;DHT22;29247;50.944;5.382;2023-04-03T12:24:23;12.60;39.20
43651;DHT22;29247;50.944;5.382;2023-04-03T12:27:24;12.60;39.90
43651;DHT22;29247;50.944;5.382;2023-04-03T12:29:58;12.70;39.90
43651;DHT22;29247;50.944;5.382;2023-04-03T12:46:28;12.70;40.10
43651;DHT22;29247;50.944;5.382;2023-04-03T12:48:59;12.60;38.60
43651;DHT22;29247;50.944;5.382;2023-04-03T12:51:37;12.60;38.40
43651;DHT22;29247;50.944;5.382;2023-04-03T12:54:32;12.50;38.50
43651;DHT22;29247;50.944;5.382;2023-04-03T12:59:44;12.40;39.20
43651;DHT22;29247;50.944;5.382;2023-04-03T13:04:55;12.40;40.50
43651;DHT22;29247;50.944;5.382;2023-04-03T13:07:32;12.40;39.50
43651;DHT22;29247;50.944;5.382;2023-04-03T13:12:53;12.30;38.70
43651;DHT22;29247;50.944;5.382;2023-04-03T13:17:49;12.20;39.60
43651;DHT22;29247;50.944;5.382;2023-04-03T13:20:28;12.20;39.70
43651;DHT22;29247;50.944;5.382;2023-04-03T13:23:08;12.20;40.20
43651;DHT22;29247;50.944;5.382;2023-04-03T13:25:42;12.30;40.20
43651;DHT22;29247;50.944;5.382;2023-04-03T13:28:12;12.30;40.80
43651;DHT22;29247;50.944;5.382;2023-04-03T13:30:55;12.30;41.10
43651;DHT22;29247;50.944;5.382;2023-04-03T13:33:27;12.30;41.50
43651;DHT22;29247;50.944;5.382;2023-04-03T13:38:35;12.30;41.30
43651;DHT22;29247;50.944;5.382;2023-04-03T13:41:24;12.30;41.80
43651;DHT22;29247;50.944;5.382;2023-04-03T13:43:50;12.30;41.30
43651;DHT22;29247;50.944;5.382;2023-04-03T13:48:44;12.40;41.90
43651;DHT22;29247;50.944;5.382;2023-04-03T13:56:16;12.30;41.40
43651;DHT22;29247;50.944;5.382;2023-04-03T13:59:38;12.30;42.10
43651;DHT22;29247;50.944;5.382;2023-04-03T14:01:48;12.20;41.60
43651;DHT22;29247;50.944;5.382;2023-04-03T14:04:19;12.20;42.10
43651;DHT22;29247;50.944;5.382;2023-04-03T14:06:54;12.20;42.10
43651;DHT22;29247;50.944;5.382;2023-04-03T14:09:24;12.20;42.60
43651;DHT22;29247;50.944;5.382;2023-04-03T14:11:53;12.20;42.70
43651;DHT22;29247;50.944;5.382;2023-04-03T14:14:26;12.30;42.70
43651;DHT22;29247;50.944;5.382;2023-04-03T14:17:01;12.30;43.10
43651;DHT22;29247;50.944;5.382;2023-04-03T14:19:33;12.30;43.10
43651;DHT22;29247;50.944;5.382;2023-04-03T14:22:00;12.30;41.90
43651;DHT22;29247;50.944;5.382;2023-04-03T14:24:31;12.20;41.90
43651;DHT22;29247;50.944;5.382;2023-04-03T14:26:57;12.20;41.70
43651;DHT22;29247;50.944;5.382;2023-04-03T14:29:25;12.20;41.50
43651;DHT22;29247;50.944;5.382;2023-04-03T14:31:52;12.20;41.80
43651;DHT22;29247;50.944;5.382;2023-04-03T14:34:17;12.30;42.30
43651;DHT22;29247;50.944;5.382;2023-04-03T14:36:46;12.30;42.50
43651;DHT22;29247;50.944;5.382;2023-04-03T14:39:17;12.40;42.50
43651;DHT22;29247;50.944;5.382;2023-04-03T14:41:44;12.40;42.50
43651;DHT22;29247;50.944;5.382;2023-04-03T14:44:10;12.40;42.30
43651;DHT22;29247;50.944;5.382;2023-04-03T14:46:41;12.40;41.70
43651;DHT22;29247;50.944;5.382;2023-04-03T14:49:21;12.30;41.60
43651;DHT22;29247;50.944;5.382;2023-04-03T14:51:49;12.30;42.40
43651;DHT22;29247;50.944;5.382;2023-04-03T14:54:20;12.30;42.00
43651;DHT22;29247;50.944;5.382;2023-04-03T14:56:51;12.30;42.00
43651;DHT22;29247;50.944;5.382;2023-04-03T14:59:17;12.20;42.30
43651;DHT22;29247;50.944;5.382;2023-04-03T15:01:48;12.20;42.60
43651;DHT22;29247;50.944;5.382;2023-04-03T15:04:16;12.20;41.60
43651;DHT22;29247;50.944;5.382;2023-04-03T15:06:44;12.20;41.50
43651;DHT22;29247;50.944;5.382;2023-04-03T15:09:25;12.20;41.50
43651;DHT22;29247;50.944;5.382;2023-04-03T15:11:52;12.10;41.90
43651;DHT22;29247;50.944;5.382;2023-04-03T15:14:19;12.00;41.60
43651;DHT22;29247;50.944;5.382;2023-04-03T15:16:45;12.00;41.90
43651;DHT22;29247;50.944;5.382;2023-04-03T15:19:15;12.00;42.10
43651;DHT22;29247;50.944;5.382;2023-04-03T15:21:43;11.90;41.80
43651;DHT22;29247;50.944;5.382;2023-04-03T15:24:09;11.90;42.00
43651;DHT22;29247;50.944;5.382;2023-04-03T15:26:35;11.80;42.00
43651;DHT22;29247;50.944;5.382;2023-04-03T15:29:03;11.70;42.40
43651;DHT22;29247;50.944;5.382;2023-04-03T15:31:29;11.70;42.60
43651;DHT22;29247;50.944;5.382;2023-04-03T15:33:57;11.70;42.90
43651;DHT22;29247;50.944;5.382;2023-04-03T15:36:26;11.60;42.70
43651;DHT22;29247;50.944;5.382;2023-04-03T15:38:52;11.60;42.30
43651;DHT22;29247;50.944;5.382;2023-04-03T15:41:21;11.40;41.70
43651;DHT22;29247;50.944;5.382;2023-04-03T15:43:47;11.40;42.10
43651;DHT22;29247;50.944;5.382;2023-04-03T15:46:13;11.40;42.40
43651;DHT22;29247;50.944;5.382;2023-04-03T15:48:41;11.50;42.20
43651;DHT22;29247;50.944;5.382;2023-04-03T15:51:10;11.50;42.20
43651;DHT22;29247;50.944;5.382;2023-04-03T15:53:36;11.60;42.50
43651;DHT22;29247;50.944;5.382;2023-04-03T15:56:01;11.60;42.50
43651;DHT22;29247;50.944;5.382;2023-04-03T15:58:27;11.60;42.50
43651;DHT22;29247;50.944;5.382;2023-04-03T16:00:55;11.60;42.20
43651;DHT22;29247;50.944;5.382;2023-04-03T16:03:21;11.60;42.20
43651;DHT22;29247;50.944;5.382;2023-04-03T16:05:48;11.60;42.40
43651;DHT22;29247;50.944;5.382;2023-04-03T16:08:15;11.60;42.30
43651;DHT22;29247;50.944;5.382;2023-04-03T16:10:41;11.50;41.60
43651;DHT22;29247;50.944;5.382;2023-04-03T16:13:07;11.50;41.70
43651;DHT22;29247;50.944;5.382;2023-04-03T16:15:34;11.50;41.80
43651;DHT22;29247;50.944;5.382;2023-04-03T16:18:05;11.50;41.70
43651;DHT22;29247;50.944;5.382;2023-04-03T16:20:31;11.50;41.50
43651;DHT22;29247;50.944;5.382;2023-04-03T16:22:58;11.40;41.30
43651;DHT22;29247;50.944;5.382;2023-04-03T16:25:29;11.40;41.20
43651;DHT22;29247;50.944;5.382;2023-04-03T16:27:58;11.30;41.10
43651;DHT22;29247;50.944;5.382;2023-04-03T16:30:24;11.30;41.40
43651;DHT22;29247;50.944;5.382;2023-04-03T16:32:53;11.30;41.60
43651;DHT22;29247;50.944;5.382;2023-04-03T16:35:23;11.30;41.90
43651;DHT22;29247;50.944;5.382;2023-04-03T16:37:49;11.30;42.20
43651;DHT22;29247;50.944;5.382;2023-04-03T16:40:15;11.30;42.40
43651;DHT22;29247;50.944;5.382;2023-04-03T16:42:41;11.30;42.40
43651;DHT22;29247;50.944;5.382;2023-04-03T16:45:07;11.20;42.30
43651;DHT22;29247;50.944;5.382;2023-04-03T16:47:34;11.20;42.00
43651;DHT22;29247;50.944;5.382;2023-04-03T16:50:03;11.10;42.10
43651;DHT22;29247;50.944;5.382;2023-04-03T16:52:32;11.10;42.10
43651;DHT22;29247;50.944;5.382;2023-04-03T16:55:00;11.00;42.00
43651;DHT22;29247;50.944;5.382;2023-04-03T16:57:26;11.00;42.10
43651;DHT22;29247;50.944;5.382;2023-04-03T16:59:53;11.00;41.90
43651;DHT22;29247;50.944;5.382;2023-04-03T17:02:22;10.90;42.10
43651;DHT22;29247;50.944;5.382;2023-04-03T17:04:50;10.90;42.80
43651;DHT22;29247;50.944;5.382;2023-04-03T17:07:20;10.90;42.10
43651;DHT22;29247;50.944;5.382;2023-04-03T17:09:49;10.90;42.30
43651;DHT22;29247;50.944;5.382;2023-04-03T17:12:15;10.80;42.20
43651;DHT22;29247;50.944;5.382;2023-04-03T17:14:44;10.80;42.30
43651;DHT22;29247;50.944;5.382;2023-04-03T17:17:12;10.70;42.30
43651;DHT22;29247;50.944;5.382;2023-04-03T17:19:41;10.70;42.30
43651;DHT22;29247;50.944;5.382;2023-04-03T17:22:08;10.60;42.40
43651;DHT22;29247;50.944;5.382;2023-04-03T17:24:35;10.60;42.80
43651;DHT22;29247;50.944;5.382;2023-04-03T17:27:01;10.60;43.20
43651;DHT22;29247;50.944;5.382;2023-04-03T17:29:27;10.50;43.40
43651;DHT22;29247;50.944;5.382;2023-04-03T17:31:53;10.50;43.40